createdAt,value
2018-07-27T00:01:41.065Z,2.00
2018-07-27T00:04:09.286Z,1.30
2018-07-27T00:06:37.555Z,1.53
2018-07-27T00:09:08.833Z,1.80
2018-07-27T00:11:37.167Z,1.47
2018-07-27T00:14:05.492Z,1.43
2018-07-27T00:16:33.765Z,1.80
2018-07-27T00:19:01.781Z,1.60
2018-07-27T00:21:32.092Z,1.43
2018-07-27T00:24:00.421Z,1.43
2018-07-27T00:26:28.952Z,1.50
2018-07-27T00:28:57.184Z,1.70
2018-07-27T00:31:25.162Z,1.70
2018-07-27T00:33:53.178Z,1.83
2018-07-27T00:36:21.378Z,1.57
2018-07-27T00:38:49.618Z,1.53
2018-07-27T00:41:17.890Z,1.60
2018-07-27T00:43:46.130Z,1.70
2018-07-27T00:46:14.380Z,1.70
2018-07-27T00:48:42.644Z,1.93
2018-07-27T00:51:10.849Z,1.57
2018-07-27T00:53:39.143Z,1.57
2018-07-27T00:56:07.500Z,1.87
2018-07-27T00:58:35.827Z,1.77
2018-07-27T01:01:03.816Z,2.00
2018-07-27T01:03:36.088Z,1.60
2018-07-27T01:06:04.328Z,1.80
2018-07-27T01:08:32.600Z,2.00
2018-07-27T01:11:00.883Z,2.03
2018-07-27T01:13:29.156Z,1.73
2018-07-27T01:15:57.428Z,2.00
2018-07-27T01:18:25.722Z,1.97
2018-07-27T01:20:53.954Z,1.70
2018-07-27T01:23:22.156Z,1.40
2018-07-27T01:25:50.407Z,1.73
2018-07-27T01:28:18.640Z,1.80
2018-07-27T01:30:46.651Z,1.80
2018-07-27T01:33:14.916Z,1.60
2018-07-27T01:35:43.204Z,1.97
2018-07-27T01:38:11.442Z,1.80
2018-07-27T01:40:39.448Z,1.80
2018-07-27T01:45:40.390Z,1.93
2018-07-27T01:48:08.424Z,1.83
2018-07-27T01:50:36.631Z,1.80
2018-07-27T01:53:04.616Z,1.93
2018-07-27T01:55:36.049Z,1.53
2018-07-27T01:58:04.380Z,1.80
2018-07-27T02:00:32.652Z,1.80
2018-07-27T02:03:00.939Z,1.93
2018-07-27T02:05:29.252Z,1.83
2018-07-27T02:07:57.472Z,1.80
2018-07-27T02:10:25.752Z,1.80
2018-07-27T02:12:53.796Z,2.20
2018-07-27T02:15:22.024Z,1.63
2018-07-27T02:17:50.328Z,2.30
2018-07-27T02:20:18.584Z,2.07
2018-07-27T02:22:46.848Z,2.10
2018-07-27T02:25:15.088Z,2.30
2018-07-27T02:27:43.391Z,2.00
2018-07-27T02:30:11.689Z,2.30
2018-07-27T02:32:39.976Z,2.10
2018-07-27T02:35:08.215Z,2.10
2018-07-27T02:37:40.046Z,1.90
2018-07-27T02:40:08.346Z,2.20
2018-07-27T02:42:36.603Z,2.03
2018-07-27T02:45:05.653Z,2.20
2018-07-27T02:47:33.903Z,2.00
2018-07-27T02:50:02.182Z,2.10
2018-07-27T02:52:30.456Z,2.20
2018-07-27T02:54:58.717Z,1.90
2018-07-27T02:57:27.012Z,2.20
2018-07-27T02:59:55.277Z,2.00
2018-07-27T03:02:23.551Z,2.37
2018-07-27T03:04:51.837Z,2.30
2018-07-27T03:07:20.087Z,2.10
2018-07-27T03:09:48.362Z,2.10
2018-07-27T03:12:16.386Z,1.93
2018-07-27T03:14:44.657Z,2.20
2018-07-27T03:17:12.888Z,2.30
2018-07-27T03:19:44.961Z,2.43
2018-07-27T03:22:13.222Z,2.17
2018-07-27T03:24:41.511Z,2.13
2018-07-27T03:27:09.796Z,2.33
2018-07-27T03:29:38.194Z,2.20
2018-07-27T03:32:06.479Z,2.37
2018-07-27T03:34:34.732Z,2.40
2018-07-27T03:37:03.040Z,2.47
2018-07-27T03:39:31.042Z,2.20
2018-07-27T03:41:59.326Z,2.30
2018-07-27T03:44:27.560Z,2.50
2018-07-27T03:46:55.780Z,2.27
2018-07-27T03:49:23.746Z,2.10
2018-07-27T03:51:52.027Z,2.40
2018-07-27T03:54:20.042Z,1.97
2018-07-27T03:56:48.438Z,2.20
2018-07-27T03:59:17.244Z,2.33
2018-07-27T04:01:48.235Z,2.60
2018-07-27T04:04:16.493Z,2.37
2018-07-27T04:06:44.565Z,2.17
2018-07-27T04:09:12.697Z,2.13
2018-07-27T04:11:41.001Z,2.77
2018-07-27T04:14:09.612Z,2.20
2018-07-27T04:16:37.917Z,2.17
2018-07-27T04:19:06.144Z,1.97
2018-07-27T04:21:34.376Z,2.60
2018-07-27T04:24:02.642Z,2.67
2018-07-27T04:26:30.880Z,2.70
2018-07-27T04:28:59.143Z,2.10
2018-07-27T04:31:27.488Z,2.67
2018-07-27T04:33:55.775Z,2.07
2018-07-27T04:36:24.088Z,2.50
2018-07-27T04:38:52.363Z,2.77
2018-07-27T04:41:20.563Z,2.60
2018-07-27T04:43:50.408Z,2.57
2018-07-27T04:46:18.621Z,2.80
2018-07-27T04:48:47.391Z,2.53
2018-07-27T04:51:15.636Z,2.40
2018-07-27T04:53:43.616Z,2.83
2018-07-27T04:56:11.939Z,2.30
2018-07-27T04:58:40.176Z,2.97
2018-07-27T05:01:08.466Z,2.63
2018-07-27T05:03:36.696Z,2.53
2018-07-27T05:06:05.027Z,2.53
2018-07-27T05:08:37.522Z,2.50
2018-07-27T05:11:06.116Z,2.50
2018-07-27T05:13:34.345Z,2.53
2018-07-27T05:16:02.643Z,3.03
2018-07-27T05:18:30.876Z,2.70
2018-07-27T05:20:59.123Z,2.83
2018-07-27T05:23:27.218Z,3.10
2018-07-27T05:25:55.519Z,2.63
2018-07-27T05:28:23.755Z,2.60
2018-07-27T05:30:52.024Z,2.60
2018-07-27T05:33:20.256Z,2.50
2018-07-27T05:35:49.347Z,2.83
2018-07-27T05:38:17.807Z,2.57
2018-07-27T05:40:46.108Z,2.60
2018-07-27T05:43:14.344Z,2.87
2018-07-27T05:45:42.585Z,2.73
2018-07-27T05:48:10.992Z,2.73
2018-07-27T05:50:39.219Z,2.80
2018-07-27T05:53:07.212Z,2.27
2018-07-27T05:55:35.467Z,2.60
2018-07-27T05:58:04.777Z,2.60
2018-07-27T06:00:33.007Z,2.50
2018-07-27T06:03:01.319Z,2.63
2018-07-27T06:05:29.528Z,2.57
2018-07-27T06:07:57.780Z,2.70
2018-07-27T06:10:26.119Z,2.47
2018-07-27T06:12:54.377Z,2.50
2018-07-27T06:15:22.607Z,2.80
2018-07-27T06:17:53.937Z,2.67
2018-07-27T06:20:22.243Z,2.60
2018-07-27T06:22:50.471Z,2.70
2018-07-27T06:25:18.752Z,2.63
2018-07-27T06:27:46.998Z,2.60
2018-07-27T06:30:15.320Z,3.20
2018-07-27T06:32:43.562Z,2.60
2018-07-27T06:35:11.887Z,2.77
2018-07-27T06:37:40.132Z,2.77
2018-07-27T06:40:08.181Z,2.67
2018-07-27T06:42:36.479Z,2.90
2018-07-27T06:45:06.252Z,2.80
2018-07-27T06:47:34.471Z,2.53
2018-07-27T06:50:02.755Z,2.87
2018-07-27T06:52:31.078Z,2.73
2018-07-27T06:54:59.317Z,2.33
2018-07-27T06:57:27.598Z,2.77
2018-07-27T06:59:56.915Z,2.83
2018-07-27T07:02:24.921Z,2.50
2018-07-27T07:04:53.123Z,2.30
2018-07-27T07:07:21.396Z,2.80
2018-07-27T07:09:49.653Z,3.00
2018-07-27T07:12:31.032Z,2.60
2018-07-27T07:14:59.413Z,2.83
2018-07-27T07:17:27.643Z,2.80
2018-07-27T07:19:57.056Z,2.50
2018-07-27T07:22:25.057Z,2.70
2018-07-27T07:24:53.305Z,2.50
2018-07-27T07:27:21.604Z,2.50
2018-07-27T07:29:50.010Z,2.80
2018-07-27T07:32:18.302Z,2.33
2018-07-27T07:34:46.556Z,2.50
2018-07-27T07:37:14.804Z,2.87
2018-07-27T07:39:43.045Z,2.67
2018-07-27T07:42:12.117Z,2.60
2018-07-27T07:44:40.339Z,2.70
2018-07-27T07:47:08.585Z,2.70
2018-07-27T07:49:36.856Z,3.20
2018-07-27T07:52:04.875Z,2.50
2018-07-27T07:54:33.103Z,2.47
2018-07-27T07:57:01.349Z,2.90
2018-07-27T07:59:30.959Z,3.13
2018-07-27T08:02:01.247Z,2.87
2018-07-27T08:04:29.237Z,2.80
2018-07-27T08:06:57.523Z,2.80
2018-07-27T08:09:25.766Z,2.50
2018-07-27T08:11:54.027Z,3.03
2018-07-27T08:14:22.063Z,2.53
2018-07-27T08:16:50.316Z,2.87
2018-07-27T08:19:18.567Z,3.00
2018-07-27T08:21:46.836Z,2.83
2018-07-27T08:24:14.798Z,2.73
2018-07-27T08:26:46.475Z,3.10
2018-07-27T08:29:16.371Z,3.00
2018-07-27T08:31:45.707Z,2.77
2018-07-27T08:34:14.778Z,2.70
2018-07-27T08:36:43.072Z,3.20
2018-07-27T08:39:12.150Z,2.80
2018-07-27T08:41:40.611Z,3.37
2018-07-27T08:44:09.853Z,2.60
2018-07-27T08:46:38.575Z,2.83
2018-07-27T08:49:06.868Z,2.87
2018-07-27T08:51:35.159Z,2.70
2018-07-27T08:54:05.799Z,2.93
2018-07-27T08:56:34.122Z,2.90
2018-07-27T08:59:02.372Z,3.10
2018-07-27T09:01:30.340Z,3.13
2018-07-27T09:03:58.330Z,2.83
2018-07-27T09:06:26.559Z,3.03
2018-07-27T09:08:54.828Z,2.97
2018-07-27T09:11:23.363Z,2.70
2018-07-27T09:13:52.188Z,2.60
2018-07-27T09:16:20.768Z,2.67
2018-07-27T09:18:49.209Z,2.90
2018-07-27T09:21:17.205Z,3.17
2018-07-27T09:23:45.463Z,2.97
2018-07-27T09:26:13.456Z,3.37
2018-07-27T09:28:41.728Z,3.40
2018-07-27T09:31:10.059Z,2.70
2018-07-27T09:33:38.312Z,2.97
2018-07-27T09:36:07.100Z,3.07
2018-07-27T09:38:35.328Z,2.90
2018-07-27T09:41:03.336Z,2.73
2018-07-27T09:43:31.604Z,2.90
2018-07-27T09:45:59.993Z,2.50
2018-07-27T09:48:28.303Z,2.33
2018-07-27T09:50:56.580Z,2.90
2018-07-27T09:53:24.823Z,2.87
2018-07-27T09:55:53.057Z,2.70
2018-07-27T09:58:21.326Z,2.93
2018-07-27T10:01:07.049Z,2.60
2018-07-27T10:03:35.302Z,2.47
2018-07-27T10:06:07.772Z,2.77
2018-07-27T10:08:36.032Z,2.77
2018-07-27T10:11:04.285Z,2.10
2018-07-27T10:13:32.587Z,2.47
2018-07-27T10:16:00.820Z,2.13
2018-07-27T10:18:29.104Z,2.33
2018-07-27T10:20:57.370Z,2.27
2018-07-27T10:23:25.636Z,2.40
2018-07-27T10:25:53.598Z,2.70
2018-07-27T10:28:21.848Z,2.20
2018-07-27T10:30:50.163Z,2.77
2018-07-27T10:33:18.457Z,2.60
2018-07-27T10:35:46.735Z,2.33
2018-07-27T10:38:15.039Z,2.43
2018-07-27T10:40:43.309Z,2.23
2018-07-27T10:43:11.529Z,2.70
2018-07-27T10:45:39.828Z,2.10
2018-07-27T10:48:10.399Z,2.30
2018-07-27T10:50:38.709Z,2.30
2018-07-27T10:53:06.960Z,2.20
2018-07-27T10:55:35.264Z,2.73
2018-07-27T10:58:03.539Z,2.57
2018-07-27T11:00:31.845Z,2.00
2018-07-27T11:03:00.129Z,2.20
2018-07-27T11:05:28.352Z,2.10
2018-07-27T11:07:56.656Z,2.00
2018-07-27T11:10:25.498Z,2.10
2018-07-27T11:12:53.776Z,2.30
2018-07-27T11:15:22.124Z,2.00
2018-07-27T11:17:50.388Z,1.80
2018-07-27T11:20:18.546Z,2.33
2018-07-27T11:22:46.545Z,2.30
2018-07-27T11:25:14.774Z,2.30
2018-07-27T11:27:43.035Z,2.33
2018-07-27T11:30:12.446Z,1.70
2018-07-27T11:32:40.507Z,1.80
2018-07-27T11:35:08.779Z,1.80
2018-07-27T11:37:37.036Z,1.73
2018-07-27T11:40:05.916Z,2.17
2018-07-27T11:42:34.281Z,1.60
2018-07-27T11:45:02.498Z,1.83
2018-07-27T11:47:30.780Z,1.67
2018-07-27T11:49:59.006Z,1.90
2018-07-27T11:52:27.263Z,1.90
2018-07-27T11:54:55.511Z,2.10
2018-07-27T11:57:23.719Z,2.27
2018-07-27T11:59:52.511Z,1.90
2018-07-27T12:02:20.524Z,2.17
2018-07-27T12:04:48.809Z,2.07
2018-07-27T12:07:17.092Z,1.90
2018-07-27T12:09:45.331Z,1.87
2018-07-27T12:12:14.760Z,1.97
2018-07-27T12:14:43.278Z,2.20
2018-07-27T12:17:11.392Z,2.20
2018-07-27T12:19:39.616Z,1.57
2018-07-27T12:22:07.890Z,1.33
2018-07-27T12:24:36.155Z,1.30
2018-07-27T12:27:04.442Z,1.77
2018-07-27T12:29:34.201Z,1.70
2018-07-27T12:32:02.552Z,1.87
2018-07-27T12:34:30.595Z,1.70
2018-07-27T12:36:58.879Z,1.83
2018-07-27T12:39:27.144Z,1.80
2018-07-27T12:41:55.422Z,2.10
2018-07-27T12:44:23.707Z,1.67
2018-07-27T12:46:52.035Z,2.00
2018-07-27T12:49:20.307Z,1.93
2018-07-27T12:51:48.566Z,1.80
2018-07-27T12:54:17.943Z,1.93
2018-07-27T12:56:46.193Z,2.10
2018-07-27T12:59:14.863Z,1.83
2018-07-27T13:01:43.204Z,1.73
2018-07-27T13:04:11.194Z,1.53
2018-07-27T13:06:39.499Z,1.60
2018-07-27T13:09:08.934Z,1.60
2018-07-27T13:11:37.200Z,1.63
2018-07-27T13:14:05.683Z,1.80
2018-07-27T13:16:33.920Z,1.80
2018-07-27T13:19:02.217Z,2.03
2018-07-27T13:21:30.500Z,1.90
2018-07-27T13:24:00.193Z,1.67
2018-07-27T13:26:28.480Z,1.60
2018-07-27T13:28:56.723Z,1.77
2018-07-27T13:31:39.488Z,1.87
2018-07-27T13:34:52.014Z,1.83
2018-07-27T13:37:21.360Z,1.77
2018-07-27T13:39:50.891Z,2.40
2018-07-27T13:42:36.201Z,2.13
2018-07-27T13:45:04.985Z,1.90
2018-07-27T13:47:33.268Z,1.90
2018-07-27T13:50:01.516Z,2.20
2018-07-27T13:52:29.780Z,1.77
2018-07-27T13:54:58.033Z,1.80
2018-07-27T13:57:26.301Z,1.80
2018-07-27T13:59:55.218Z,2.40
2018-07-27T14:02:25.399Z,1.67
2018-07-27T14:04:53.656Z,1.80
2018-07-27T14:07:21.954Z,2.00
2018-07-27T14:09:49.950Z,1.87
2018-07-27T14:12:18.288Z,2.07
2018-07-27T14:14:46.676Z,2.27
2018-07-27T14:17:14.929Z,2.10
2018-07-27T14:19:44.267Z,1.97
2018-07-27T14:22:12.517Z,2.10
2018-07-27T14:24:40.813Z,2.50
2018-07-27T14:27:09.137Z,1.90
2018-07-27T14:29:37.553Z,1.97
2018-07-27T14:32:05.834Z,2.10
2018-07-27T14:34:34.176Z,1.97
2018-07-27T14:37:02.438Z,1.90
2018-07-27T14:39:30.716Z,1.90
2018-07-27T14:41:58.965Z,2.33
2018-07-27T14:44:27.242Z,1.73
2018-07-27T14:46:55.476Z,1.90
2018-07-27T14:49:23.735Z,2.03
2018-07-27T14:51:51.986Z,2.10
2018-07-27T14:54:23.318Z,2.13
2018-07-27T14:56:51.629Z,1.73
2018-07-27T14:59:20.877Z,2.00
2018-07-27T15:01:49.164Z,1.73
2018-07-27T15:04:17.327Z,2.07
2018-07-27T15:06:46.104Z,2.00
2018-07-27T15:09:15.072Z,2.00
2018-07-27T15:11:44.173Z,1.57
2018-07-27T15:14:12.491Z,1.90
2018-07-27T15:16:41.342Z,1.67
2018-07-27T15:19:10.429Z,1.70
2018-07-27T15:21:38.887Z,1.90
2018-07-27T15:24:07.130Z,2.10
2018-07-27T15:26:35.420Z,2.10
2018-07-27T15:29:14.439Z,1.60
2018-07-27T15:31:42.683Z,2.10
2018-07-27T15:34:10.908Z,2.30
2018-07-27T15:36:39.640Z,1.83
2018-07-27T15:39:08.539Z,1.70
2018-07-27T15:41:37.111Z,1.70
2018-07-27T15:44:05.428Z,1.70
2018-07-27T15:46:33.659Z,1.80
2018-07-27T15:49:01.969Z,2.10
2018-07-27T15:51:30.266Z,1.87
2018-07-27T15:53:58.567Z,1.90
2018-07-27T15:56:29.355Z,2.10
2018-07-27T15:58:57.598Z,1.90
2018-07-27T16:01:25.831Z,2.07
2018-07-27T16:03:54.134Z,1.80
2018-07-27T16:06:22.108Z,1.80
2018-07-27T16:08:50.089Z,1.67
2018-07-27T16:11:18.400Z,1.67
2018-07-27T16:13:46.675Z,1.63
2018-07-27T16:16:15.030Z,2.00
2018-07-27T16:18:43.281Z,2.10
2018-07-27T16:21:11.533Z,1.77
2018-07-27T16:23:39.779Z,1.73
2018-07-27T16:26:08.010Z,1.70
2018-07-27T16:28:36.291Z,2.20
2018-07-27T16:31:04.304Z,2.13
2018-07-27T16:33:32.577Z,1.70
2018-07-27T16:36:00.839Z,2.00
2018-07-27T16:38:30.716Z,1.70
2018-07-27T16:40:58.979Z,1.90
2018-07-27T16:43:27.236Z,1.73
2018-07-27T16:45:55.508Z,1.70
2018-07-27T16:48:23.792Z,1.73
2018-07-27T16:50:52.084Z,1.70
2018-07-27T16:53:20.387Z,2.00
2018-07-27T16:55:48.354Z,1.80
2018-07-27T16:58:16.663Z,1.90
2018-07-27T17:00:44.920Z,1.80
2018-07-27T17:03:13.168Z,1.67
2018-07-27T17:05:41.435Z,1.67
2018-07-27T17:08:09.714Z,1.83
2018-07-27T17:10:37.981Z,1.50
2018-07-27T17:13:06.227Z,1.53
2018-07-27T17:15:34.496Z,1.57
2018-07-27T17:18:02.764Z,1.77
2018-07-27T17:20:32.757Z,1.70
2018-07-27T17:23:00.975Z,1.57
2018-07-27T17:25:29.265Z,1.60
2018-07-27T17:27:57.495Z,2.00
2018-07-27T17:30:25.764Z,1.40
2018-07-27T17:32:54.093Z,1.83
2018-07-27T17:35:22.373Z,1.50
2018-07-27T17:37:50.695Z,1.60
2018-07-27T17:40:18.713Z,1.60
2018-07-27T17:42:47.061Z,1.70
2018-07-27T17:45:15.321Z,1.73
2018-07-27T17:47:43.568Z,2.00
2018-07-27T17:50:11.859Z,1.70
2018-07-27T17:52:40.246Z,2.00
2018-07-27T17:55:08.539Z,1.97
2018-07-27T17:57:37.005Z,2.07
2018-07-27T18:00:05.196Z,1.97
2018-07-27T18:02:34.432Z,1.90
2018-07-27T18:05:02.697Z,1.90
2018-07-27T18:07:31.037Z,2.00
2018-07-27T18:09:59.225Z,1.90
2018-07-27T18:12:27.507Z,1.70
2018-07-27T18:14:55.836Z,1.80
2018-07-27T18:17:24.076Z,1.93
2018-07-27T18:19:52.348Z,2.00
2018-07-27T18:22:20.603Z,2.10
2018-07-27T18:24:49.012Z,2.30
2018-07-27T18:27:17.251Z,2.20
2018-07-27T18:29:45.612Z,2.27
2018-07-27T18:32:13.612Z,2.30
2018-07-27T18:34:41.973Z,2.30
2018-07-27T18:37:10.075Z,1.97
2018-07-27T18:39:38.361Z,2.20
2018-07-27T18:42:06.950Z,2.20
2018-07-27T18:44:35.776Z,1.97
2018-07-27T18:47:04.039Z,2.37
2018-07-27T18:49:32.246Z,1.80
2018-07-27T18:52:00.489Z,2.13
2018-07-27T18:54:28.821Z,2.43
2018-07-27T18:56:57.113Z,2.20
2018-07-27T18:59:27.071Z,2.50
2018-07-27T19:01:55.173Z,2.90
2018-07-27T19:04:23.420Z,1.97
2018-07-27T19:06:51.683Z,2.13
2018-07-27T19:09:19.936Z,2.17
2018-07-27T19:11:48.204Z,2.13
2018-07-27T19:14:16.446Z,2.47
2018-07-27T19:16:44.727Z,2.27
2018-07-27T19:19:12.976Z,2.70
2018-07-27T19:21:41.223Z,2.40
2018-07-27T19:24:09.471Z,2.20
2018-07-27T19:26:38.562Z,2.20
2018-07-27T19:29:07.141Z,2.50
2018-07-27T19:31:35.455Z,2.47
2018-07-27T19:34:03.786Z,2.13
2018-07-27T19:36:32.123Z,2.20
2018-07-27T19:39:00.407Z,2.40
2018-07-27T19:41:28.761Z,2.50
2018-07-27T19:43:57.053Z,2.37
2018-07-27T19:49:08.263Z,2.10
2018-07-27T19:51:36.492Z,2.50
2018-07-27T19:54:04.711Z,2.57
2018-07-27T19:56:32.968Z,2.40
2018-07-27T19:59:01.203Z,2.43
2018-07-27T20:01:29.437Z,2.50
2018-07-27T20:03:57.701Z,2.67
2018-07-27T20:06:26.249Z,2.37
2018-07-27T20:08:54.463Z,2.40
2018-07-27T20:11:22.797Z,2.33
2018-07-27T20:13:51.043Z,2.30
2018-07-27T20:16:19.014Z,2.33
2018-07-27T20:18:47.735Z,2.27
2018-07-27T20:21:15.978Z,2.60
2018-07-27T20:23:44.215Z,2.07
2018-07-27T20:26:12.522Z,2.23
2018-07-27T20:28:40.502Z,2.90
2018-07-27T20:31:08.778Z,2.30
2018-07-27T20:33:36.814Z,2.27
2018-07-27T20:36:05.070Z,2.63
2018-07-27T20:38:33.315Z,2.43
2018-07-27T20:41:01.594Z,2.47
2018-07-27T20:43:29.846Z,2.50
2018-07-27T20:45:58.084Z,2.23
2018-07-27T20:48:26.476Z,2.50
2018-07-27T20:50:54.773Z,2.27
2018-07-27T20:53:23.072Z,2.40
2018-07-27T20:55:51.348Z,2.20
2018-07-27T20:58:19.618Z,2.20
2018-07-27T21:00:49.627Z,2.47
2018-07-27T21:03:17.929Z,2.67
2018-07-27T21:05:46.180Z,2.40
2018-07-27T21:08:14.189Z,2.50
2018-07-27T21:10:42.472Z,2.40
2018-07-27T21:13:10.748Z,2.43
2018-07-27T21:15:39.012Z,2.23
2018-07-27T21:18:07.277Z,2.37
2018-07-27T21:20:35.515Z,2.53
2018-07-27T21:23:03.823Z,2.30
2018-07-27T21:25:32.164Z,2.43
2018-07-27T21:28:00.408Z,2.50
2018-07-27T21:30:28.649Z,2.40
2018-07-27T21:32:56.896Z,2.90
2018-07-27T21:35:25.221Z,2.57
2018-07-27T21:37:53.486Z,2.47
2018-07-27T21:40:21.772Z,2.80
2018-07-27T21:42:50.926Z,2.20
2018-07-27T21:45:19.210Z,2.27
2018-07-27T21:47:47.485Z,2.20
2018-07-27T21:50:15.453Z,2.57
2018-07-27T21:52:43.689Z,2.50
2018-07-27T21:55:11.894Z,2.53
2018-07-27T21:57:40.199Z,2.30
2018-07-27T22:00:10.252Z,2.47
2018-07-27T22:02:38.512Z,2.40
2018-07-27T22:05:07.278Z,2.60
2018-07-27T22:07:35.788Z,2.50
2018-07-27T22:10:04.461Z,2.53
2018-07-27T22:12:32.698Z,2.43
2018-07-27T22:15:00.919Z,2.80
2018-07-27T22:17:29.187Z,2.20
2018-07-27T22:19:57.469Z,2.40
2018-07-27T22:22:25.745Z,2.47
2018-07-27T22:24:55.047Z,2.47
2018-07-27T22:27:23.279Z,3.00
2018-07-27T22:29:52.519Z,2.60
2018-07-27T22:32:20.775Z,2.70
2018-07-27T22:34:48.986Z,2.37
2018-07-27T22:37:17.259Z,2.50
2018-07-27T22:39:45.506Z,2.40
2018-07-27T22:42:13.742Z,2.50
2018-07-27T22:44:42.000Z,2.37
2018-07-27T22:47:10.356Z,2.60
2018-07-27T22:49:38.602Z,2.13
2018-07-27T22:52:06.891Z,2.70
2018-07-27T22:54:34.887Z,2.20
2018-07-27T22:57:03.132Z,2.37
2018-07-27T22:59:32.744Z,2.67
2018-07-27T23:02:01.013Z,2.30
2018-07-27T23:04:29.234Z,2.67
2018-07-27T23:06:58.827Z,2.90
2018-07-27T23:09:27.020Z,2.30
2018-07-27T23:11:55.247Z,2.77
2018-07-27T23:14:23.562Z,2.37
2018-07-27T23:16:51.832Z,2.43
2018-07-27T23:19:20.076Z,2.40
2018-07-27T23:21:48.326Z,2.80
2018-07-27T23:24:16.642Z,2.50
2018-07-27T23:26:44.957Z,2.90
2018-07-27T23:29:13.405Z,2.70
2018-07-27T23:31:41.407Z,2.40
2018-07-27T23:34:09.660Z,2.47
2018-07-27T23:36:37.932Z,2.60
2018-07-27T23:39:10.748Z,2.50
2018-07-27T23:41:39.039Z,2.53
2018-07-27T23:44:07.322Z,2.73
2018-07-27T23:46:35.567Z,3.20
2018-07-27T23:49:03.848Z,2.50
2018-07-27T23:51:31.854Z,2.77
2018-07-27T23:54:00.076Z,2.70
2018-07-27T23:56:28.367Z,2.87
2018-07-27T23:59:00.337Z,2.70
